createdAt,value
2023-04-18T00:01:31.805Z,37.48
2023-04-18T00:04:01.903Z,37.88
2023-04-18T00:06:29.940Z,38.05
2023-04-18T00:08:57.871Z,38.13
2023-04-18T00:11:25.818Z,38.66
2023-04-18T00:13:53.698Z,37.99
2023-04-18T00:16:22.336Z,38.65
2023-04-18T00:18:50.527Z,39.28
2023-04-18T00:21:19.874Z,39.77
2023-04-18T00:23:47.685Z,39.43
2023-04-18T00:26:15.610Z,39.93
2023-04-18T00:28:45.811Z,39.88
2023-04-18T00:31:13.704Z,38.12
2023-04-18T00:33:41.603Z,38.59
2023-04-18T00:36:10.078Z,38.86
2023-04-18T00:38:39.592Z,38.45
2023-04-18T00:41:08.582Z,37.16
2023-04-18T00:43:37.114Z,39.08
2023-04-18T00:46:04.981Z,38.87
2023-04-18T00:48:33.019Z,41.43
2023-04-18T00:51:01.633Z,41.15
2023-04-18T00:53:30.754Z,41.17
2023-04-18T00:56:00.197Z,42.55
2023-04-18T00:58:28.444Z,41.09
2023-04-18T01:00:56.230Z,38.08
2023-04-18T01:03:24.185Z,39.48
2023-04-18T01:05:52.344Z,41.45
2023-04-18T01:08:21.985Z,41.17
2023-04-18T01:10:53.186Z,39.65
2023-04-18T01:13:22.532Z,40.94
2023-04-18T01:15:51.764Z,41.32
2023-04-18T01:18:20.862Z,38.77
2023-04-18T01:20:50.032Z,39.71
2023-04-18T01:23:19.281Z,39.90
2023-04-18T01:25:50.410Z,40.87
2023-04-18T01:28:21.260Z,42.01
2023-04-18T01:30:49.709Z,39.56
2023-04-18T01:33:17.944Z,39.60
2023-04-18T01:35:48.257Z,41.18
2023-04-18T01:38:16.157Z,40.83
2023-04-18T01:40:44.070Z,42.59
2023-04-18T01:43:13.322Z,42.78
2023-04-18T01:45:41.309Z,42.71
2023-04-18T01:48:10.041Z,42.95
2023-04-18T01:50:38.189Z,41.74
2023-04-18T01:53:06.210Z,42.66
2023-04-18T01:55:34.089Z,42.85
2023-04-18T01:58:01.916Z,42.03
2023-04-18T02:00:31.094Z,42.78
2023-04-18T02:02:59.775Z,41.41
2023-04-18T02:05:28.124Z,40.61
2023-04-18T02:07:56.046Z,42.10
2023-04-18T02:10:24.080Z,41.16
2023-04-18T02:12:51.974Z,40.91
2023-04-18T02:15:20.893Z,42.04
2023-04-18T02:17:50.534Z,41.77
2023-04-18T02:20:18.425Z,40.93
2023-04-18T02:22:46.408Z,42.08
2023-04-18T02:25:14.342Z,41.77
2023-04-18T02:27:42.989Z,42.35
2023-04-18T02:30:11.634Z,43.41
2023-04-18T02:32:39.463Z,42.96
2023-04-18T02:35:09.489Z,43.55
2023-04-18T02:37:37.436Z,43.77
2023-04-18T02:40:07.224Z,44.69
2023-04-18T02:42:35.151Z,44.86
2023-04-18T02:45:03.090Z,44.12
2023-04-18T02:47:35.387Z,45.22
2023-04-18T02:50:11.073Z,43.77
2023-04-18T02:52:39.237Z,43.91
2023-04-18T02:55:08.189Z,42.33
2023-04-18T02:57:40.391Z,44.47
2023-04-18T03:00:28.408Z,45.32
2023-04-18T03:03:16.280Z,44.89
2023-04-18T03:06:14.562Z,43.90
2023-04-18T03:08:43.211Z,45.00
2023-04-18T03:11:11.296Z,44.23
2023-04-18T03:13:39.505Z,44.18
2023-04-18T03:16:07.999Z,44.68
2023-04-18T03:18:36.185Z,45.49
2023-04-18T03:21:04.087Z,44.31
2023-04-18T03:23:35.312Z,40.75
2023-04-18T03:26:09.147Z,42.96
2023-04-18T03:28:40.078Z,42.47
2023-04-18T03:31:08.747Z,41.76
2023-04-18T03:33:42.246Z,42.44
2023-04-18T03:36:12.267Z,42.76
2023-04-18T03:38:43.038Z,42.31
2023-04-18T03:41:11.262Z,42.44
2023-04-18T03:43:39.793Z,43.63
2023-04-18T03:46:07.936Z,44.61
2023-04-18T03:48:37.387Z,41.67
2023-04-18T03:51:09.799Z,43.14
2023-04-18T03:53:39.070Z,42.60
2023-04-18T03:56:08.644Z,42.83
2023-04-18T03:58:49.124Z,42.39
2023-04-18T04:01:17.804Z,43.60
2023-04-18T04:03:45.863Z,42.00
2023-04-18T04:06:14.021Z,41.15
2023-04-18T04:08:41.918Z,43.00
2023-04-18T04:11:11.562Z,43.85
2023-04-18T04:13:40.393Z,42.18
2023-04-18T04:16:09.249Z,41.67
2023-04-18T04:18:38.098Z,40.26
2023-04-18T04:21:06.988Z,39.43
2023-04-18T04:23:48.997Z,41.65
2023-04-18T04:26:31.742Z,42.21
2023-04-18T04:29:05.028Z,42.53
2023-04-18T04:31:34.935Z,42.62
2023-04-18T04:34:03.487Z,43.11
2023-04-18T04:36:33.511Z,42.76
2023-04-18T04:39:04.141Z,42.72
2023-04-18T04:41:50.035Z,43.23
2023-04-18T04:44:22.063Z,43.63
2023-04-18T04:46:50.692Z,44.12
2023-04-18T04:49:22.614Z,43.32
2023-04-18T04:51:50.775Z,42.83
2023-04-18T04:54:18.602Z,40.77
2023-04-18T04:56:46.764Z,41.83
2023-04-18T04:59:16.416Z,41.98
2023-04-18T05:01:46.540Z,40.48
2023-04-18T05:04:17.212Z,41.28
2023-04-18T05:06:46.682Z,43.23
2023-04-18T05:09:14.637Z,43.85
2023-04-18T05:11:42.434Z,43.45
2023-04-18T05:14:10.213Z,43.01
2023-04-18T05:16:39.989Z,44.22
2023-04-18T05:19:07.844Z,43.24
2023-04-18T05:21:36.087Z,41.42
2023-04-18T05:24:04.126Z,42.49
2023-04-18T05:26:32.129Z,42.41
2023-04-18T05:29:00.115Z,41.50
2023-04-18T05:31:28.160Z,40.80
2023-04-18T05:33:57.577Z,41.39
2023-04-18T05:36:25.542Z,41.87
2023-04-18T05:38:53.472Z,41.21
2023-04-18T05:41:21.315Z,42.65
2023-04-18T05:43:58.097Z,40.54
2023-04-18T05:46:30.385Z,40.94
2023-04-18T05:48:59.896Z,40.97
2023-04-18T05:51:28.621Z,41.13
2023-04-18T05:53:56.531Z,39.82
2023-04-18T05:56:24.396Z,40.61
2023-04-18T05:58:52.449Z,40.60
2023-04-18T06:01:20.279Z,40.48
2023-04-18T06:03:48.597Z,40.85
2023-04-18T06:06:18.449Z,39.90
2023-04-18T06:08:46.476Z,40.06
2023-04-18T06:11:15.296Z,39.97
2023-04-18T06:13:43.205Z,40.37
2023-04-18T06:16:11.192Z,39.23
2023-04-18T06:18:39.013Z,38.50
2023-04-18T06:21:07.310Z,39.71
2023-04-18T06:23:43.848Z,39.19
2023-04-18T06:26:12.838Z,39.96
2023-04-18T06:28:40.865Z,39.02
2023-04-18T06:31:22.431Z,38.46
2023-04-18T06:33:52.750Z,39.02
2023-04-18T06:36:21.359Z,37.31
2023-04-18T06:38:50.845Z,37.42
2023-04-18T06:41:18.809Z,37.99
2023-04-18T06:43:59.817Z,39.77
2023-04-18T06:46:31.428Z,39.12
2023-04-18T06:48:59.305Z,39.73
2023-04-18T06:51:27.377Z,40.19
2023-04-18T06:53:56.535Z,37.68
2023-04-18T06:56:24.527Z,39.79
2023-04-18T06:58:52.936Z,39.24
2023-04-18T07:01:21.086Z,40.28
2023-04-18T07:03:49.113Z,39.67
2023-04-18T07:06:17.081Z,39.82
2023-04-18T07:08:44.926Z,40.67
2023-04-18T07:11:14.346Z,40.76
2023-04-18T07:13:43.105Z,41.26
2023-04-18T07:16:11.021Z,39.64
2023-04-18T07:18:38.895Z,39.13
2023-04-18T07:21:08.026Z,37.73
2023-04-18T07:23:36.032Z,38.30
2023-04-18T07:26:05.800Z,39.93
2023-04-18T07:28:35.198Z,37.51
2023-04-18T07:31:04.591Z,38.01
2023-04-18T07:33:33.754Z,37.39
2023-04-18T07:36:01.881Z,39.41
2023-04-18T07:38:29.779Z,37.52
2023-04-18T07:40:58.256Z,38.23
2023-04-18T07:43:26.136Z,37.93
2023-04-18T07:45:55.580Z,39.00
2023-04-18T07:48:25.044Z,37.49
2023-04-18T07:50:53.120Z,36.98
2023-04-18T07:53:21.227Z,36.37
2023-04-18T07:55:49.257Z,37.72
2023-04-18T07:58:17.207Z,37.77
2023-04-18T08:00:45.204Z,37.17
2023-04-18T08:03:14.559Z,37.18
2023-04-18T08:05:43.701Z,37.41
2023-04-18T08:08:12.812Z,36.48
2023-04-18T08:10:40.672Z,36.11
2023-04-18T08:13:09.451Z,36.36
2023-04-18T08:15:37.435Z,33.70
2023-04-18T08:18:05.428Z,33.54
2023-04-18T08:20:36.952Z,36.14
2023-04-18T08:23:08.447Z,36.85
2023-04-18T08:25:37.574Z,35.68
2023-04-18T08:28:05.890Z,34.53
2023-04-18T08:30:34.297Z,34.39
2023-04-18T08:33:02.560Z,33.29
2023-04-18T08:35:30.711Z,34.21
2023-04-18T08:37:59.873Z,35.66
2023-04-18T08:40:29.812Z,34.88
2023-04-18T08:42:58.615Z,35.33
2023-04-18T08:45:26.475Z,33.73
2023-04-18T08:47:56.006Z,34.94
2023-04-18T08:50:24.199Z,36.62
2023-04-18T08:52:56.032Z,33.30
2023-04-18T08:55:25.505Z,32.57
2023-04-18T08:57:54.744Z,30.78
2023-04-18T09:00:23.589Z,31.64
2023-04-18T09:02:56.548Z,35.56
2023-04-18T09:05:26.812Z,34.86
2023-04-18T09:07:56.232Z,35.21
2023-04-18T09:10:30.912Z,33.75
2023-04-18T09:13:01.004Z,32.62
2023-04-18T09:15:29.949Z,33.37
2023-04-18T09:17:59.177Z,32.55
2023-04-18T09:20:34.706Z,32.16
2023-04-18T09:23:04.774Z,33.23
2023-04-18T09:25:39.809Z,31.50
2023-04-18T09:28:24.369Z,31.79
2023-04-18T09:30:53.112Z,32.68
2023-04-18T09:33:28.263Z,30.30
2023-04-18T09:35:56.383Z,32.23
2023-04-18T09:38:41.835Z,33.35
2023-04-18T09:41:11.667Z,33.22
2023-04-18T09:43:39.753Z,35.92
2023-04-18T09:46:08.854Z,36.12
2023-04-18T09:48:37.145Z,33.79
2023-04-18T09:51:08.218Z,33.11
2023-04-18T09:53:39.503Z,32.45
2023-04-18T09:56:10.827Z,32.28
2023-04-18T09:58:42.394Z,31.42
2023-04-18T10:01:13.284Z,31.59
2023-04-18T10:03:45.470Z,31.56
2023-04-18T10:06:16.940Z,32.29
2023-04-18T10:08:45.863Z,31.58
2023-04-18T10:11:13.793Z,32.08
2023-04-18T10:13:48.328Z,30.23
2023-04-18T10:16:17.096Z,28.98
2023-04-18T10:18:45.157Z,31.96
2023-04-18T10:21:13.201Z,29.88
2023-04-18T10:23:42.002Z,30.87
2023-04-18T10:26:10.978Z,31.14
2023-04-18T10:28:54.641Z,31.89
2023-04-18T10:31:23.841Z,31.43
2023-04-18T10:34:03.908Z,31.03
2023-04-18T10:37:04.577Z,30.90
2023-04-18T10:39:47.841Z,30.58
2023-04-18T10:42:15.751Z,30.62
2023-04-18T10:44:45.068Z,29.88
2023-04-18T10:47:23.010Z,30.64
2023-04-18T10:49:58.949Z,29.97
2023-04-18T10:52:28.339Z,29.57
2023-04-18T10:55:09.498Z,28.45
2023-04-18T10:57:41.794Z,27.12
2023-04-18T11:00:14.093Z,29.25
2023-04-18T11:02:51.126Z,29.46
2023-04-18T11:05:24.250Z,27.87
2023-04-18T11:07:52.297Z,28.36
2023-04-18T11:10:22.534Z,28.09
2023-04-18T11:12:50.568Z,29.38
2023-04-18T11:15:22.474Z,29.14
2023-04-18T11:17:58.185Z,27.81
2023-04-18T11:20:26.742Z,27.87
2023-04-18T11:22:56.777Z,28.09
2023-04-18T11:25:29.369Z,27.41
2023-04-18T11:28:00.381Z,26.83
2023-04-18T11:30:36.897Z,27.29
2023-04-18T11:33:07.345Z,28.32
2023-04-18T11:35:38.653Z,25.94
2023-04-18T11:38:06.777Z,27.61
2023-04-18T11:40:35.311Z,28.31
2023-04-18T11:43:04.888Z,29.04
2023-04-18T11:45:34.666Z,27.53
2023-04-18T11:48:02.739Z,28.90
2023-04-18T11:50:36.790Z,26.83
2023-04-18T11:53:04.797Z,25.38
2023-04-18T11:55:33.052Z,27.78
2023-04-18T11:58:03.158Z,29.53
2023-04-18T12:00:35.383Z,29.23
2023-04-18T12:03:05.977Z,27.97
2023-04-18T12:05:37.364Z,28.43
2023-04-18T12:08:11.389Z,29.09
2023-04-18T12:10:46.142Z,28.81
2023-04-18T12:13:14.353Z,29.64
2023-04-18T12:15:45.089Z,29.88
2023-04-18T12:18:15.341Z,28.94
2023-04-18T12:20:50.370Z,26.90
2023-04-18T12:23:35.519Z,28.44
2023-04-18T12:26:04.524Z,27.20
2023-04-18T12:28:32.981Z,25.37
2023-04-18T12:31:02.489Z,25.87
2023-04-18T12:33:31.694Z,26.21
2023-04-18T12:36:00.164Z,27.14
2023-04-18T12:38:27.976Z,26.71
2023-04-18T12:40:55.986Z,28.81
2023-04-18T12:43:23.849Z,27.67
2023-04-18T12:45:51.747Z,27.42
2023-04-18T12:48:21.114Z,28.62
2023-04-18T12:50:49.187Z,30.11
2023-04-18T12:53:17.053Z,28.80
2023-04-18T12:55:44.909Z,27.76
2023-04-18T12:58:15.216Z,26.85
2023-04-18T13:00:43.332Z,26.54
2023-04-18T13:03:13.211Z,27.24
2023-04-18T13:05:43.323Z,26.43
2023-04-18T13:08:16.769Z,27.91
2023-04-18T13:10:46.296Z,27.83
2023-04-18T13:13:14.727Z,25.99
2023-04-18T13:15:43.013Z,26.69
2023-04-18T13:18:11.100Z,26.00
2023-04-18T13:20:39.196Z,26.42
2023-04-18T13:23:08.670Z,26.31
2023-04-18T13:25:36.610Z,26.60
2023-04-18T13:28:04.602Z,26.81
2023-04-18T13:30:35.766Z,28.36
2023-04-18T13:33:03.965Z,27.86
2023-04-18T13:35:32.059Z,28.07
2023-04-18T13:38:00.229Z,28.10
2023-04-18T13:40:29.795Z,29.60
2023-04-18T13:42:57.970Z,29.06
2023-04-18T13:45:25.919Z,27.46
2023-04-18T13:47:54.280Z,28.13
2023-04-18T13:50:23.174Z,29.29
2023-04-18T13:52:51.876Z,29.74
2023-04-18T13:55:19.841Z,28.63
2023-04-18T13:57:49.234Z,27.85
2023-04-18T14:00:19.276Z,28.50
2023-04-18T14:02:47.396Z,28.42
2023-04-18T14:05:15.907Z,28.92
2023-04-18T14:07:44.052Z,27.36
2023-04-18T14:10:12.571Z,28.04
2023-04-18T14:12:41.049Z,29.84
2023-04-18T14:15:11.810Z,31.37
2023-04-18T14:17:40.038Z,30.47
2023-04-18T14:20:09.430Z,29.39
2023-04-18T14:22:37.493Z,28.40
2023-04-18T14:25:06.203Z,29.79
2023-04-18T14:27:34.112Z,29.07
2023-04-18T14:30:02.050Z,29.92
2023-04-18T14:32:31.382Z,30.65
2023-04-18T14:34:59.952Z,30.33
2023-04-18T14:37:28.135Z,27.81
2023-04-18T14:39:55.985Z,29.63
2023-04-18T14:42:23.840Z,29.08
2023-04-18T14:44:52.016Z,27.72
2023-04-18T14:47:19.963Z,28.83
2023-04-18T14:49:49.276Z,29.13
2023-04-18T14:52:17.114Z,29.34
2023-04-18T14:54:44.955Z,29.48
2023-04-18T14:57:13.305Z,29.08
2023-04-18T14:59:41.139Z,28.61
2023-04-18T15:02:09.116Z,29.72
2023-04-18T15:04:37.330Z,29.73
2023-04-18T15:07:07.226Z,30.47
2023-04-18T15:09:37.530Z,30.39
2023-04-18T15:12:06.545Z,28.94
2023-04-18T15:14:34.940Z,24.65
2023-04-18T15:17:03.152Z,23.11
2023-04-18T15:19:31.922Z,22.76
2023-04-18T15:22:00.000Z,22.96
2023-04-18T15:24:29.241Z,24.04
2023-04-18T15:26:57.438Z,24.94
2023-04-18T15:29:25.420Z,25.80
2023-04-18T15:31:53.482Z,24.25
2023-04-18T15:34:21.574Z,25.72
2023-04-18T15:36:49.868Z,23.79
2023-04-18T15:39:21.826Z,23.29
2023-04-18T15:41:53.247Z,23.35
2023-04-18T15:44:21.365Z,28.22
2023-04-18T15:46:49.768Z,28.32
2023-04-18T15:49:18.346Z,28.89
2023-04-18T15:51:46.452Z,29.35
2023-04-18T15:54:14.594Z,29.97
2023-04-18T15:56:44.664Z,28.87
2023-04-18T15:59:14.681Z,28.39
2023-04-18T16:01:45.635Z,27.54
2023-04-18T16:04:14.421Z,26.95
2023-04-18T16:06:42.874Z,28.95
2023-04-18T16:09:10.809Z,30.13
2023-04-18T16:11:38.815Z,31.82
2023-04-18T16:14:06.766Z,30.64
2023-04-18T16:16:36.437Z,30.34
2023-04-18T16:19:05.478Z,30.88
2023-04-18T16:21:33.679Z,29.98
2023-04-18T16:24:01.800Z,30.64
2023-04-18T16:26:30.205Z,31.75
2023-04-18T16:28:58.210Z,30.49
2023-04-18T16:31:26.195Z,30.43
2023-04-18T16:33:55.985Z,32.32
2023-04-18T16:36:24.190Z,31.64
2023-04-18T16:38:52.451Z,32.49
2023-04-18T16:41:20.577Z,32.63
2023-04-18T16:43:48.566Z,33.74
2023-04-18T16:46:16.761Z,35.30
2023-04-18T16:48:45.304Z,32.65
2023-04-18T16:51:14.721Z,32.25
2023-04-18T16:53:43.140Z,33.51
2023-04-18T16:56:11.376Z,33.70
2023-04-18T16:58:39.565Z,33.55
2023-04-18T17:01:08.322Z,32.25
2023-04-18T17:03:36.618Z,33.63
2023-04-18T17:06:05.974Z,33.30
2023-04-18T17:08:35.968Z,34.28
2023-04-18T17:11:04.315Z,35.99
2023-04-18T17:13:32.496Z,33.11
2023-04-18T17:16:00.869Z,33.48
2023-04-18T17:18:29.395Z,34.39
2023-04-18T17:20:57.659Z,34.11
2023-04-18T17:23:25.825Z,35.92
2023-04-18T17:25:55.809Z,35.66
2023-04-18T17:28:25.183Z,35.56
2023-04-18T17:30:53.805Z,34.33
2023-04-18T17:33:22.063Z,34.75
2023-04-18T17:35:50.813Z,34.05
2023-04-18T17:38:18.942Z,34.13
2023-04-18T17:40:47.389Z,34.11
2023-04-18T17:43:17.238Z,34.60
2023-04-18T17:45:45.441Z,36.82
2023-04-18T17:48:13.707Z,34.98
2023-04-18T17:50:42.749Z,35.02
2023-04-18T17:53:12.369Z,34.66
2023-04-18T17:55:41.805Z,34.12
2023-04-18T17:58:09.992Z,35.79
2023-04-18T18:00:39.724Z,34.12
2023-04-18T18:03:09.636Z,34.04
2023-04-18T18:05:38.000Z,33.73
2023-04-18T18:08:06.761Z,34.96
2023-04-18T18:10:35.436Z,32.94
2023-04-18T18:13:03.675Z,33.90
2023-04-18T18:15:32.598Z,33.68
2023-04-18T18:18:03.258Z,32.78
2023-04-18T18:20:32.211Z,32.91
2023-04-18T18:23:00.612Z,32.63
2023-04-18T18:25:29.452Z,34.10
2023-04-18T18:27:57.770Z,35.14
2023-04-18T18:30:26.271Z,33.39
2023-04-18T18:32:54.557Z,35.58
2023-04-18T18:35:24.502Z,33.46
2023-04-18T18:37:53.259Z,34.15
2023-04-18T18:40:21.693Z,35.27
2023-04-18T18:42:51.452Z,36.12
2023-04-18T18:45:21.186Z,36.71
2023-04-18T18:47:49.765Z,35.16
2023-04-18T18:50:18.001Z,36.57
2023-04-18T18:52:47.632Z,36.13
2023-04-18T18:55:16.444Z,35.39
2023-04-18T18:57:44.686Z,35.51
2023-04-18T19:00:13.876Z,35.01
2023-04-18T19:02:42.223Z,34.91
2023-04-18T19:05:12.561Z,34.28
2023-04-18T19:07:42.373Z,33.83
2023-04-18T19:10:12.303Z,35.40
2023-04-18T19:12:40.485Z,34.19
2023-04-18T19:15:09.794Z,35.38
2023-04-18T19:17:38.052Z,35.78
2023-04-18T19:20:07.556Z,35.44
2023-04-18T19:22:35.779Z,35.69
2023-04-18T19:25:04.310Z,35.21
2023-04-18T19:27:34.102Z,36.07
2023-04-18T19:30:02.807Z,36.10
2023-04-18T19:32:31.874Z,35.75
2023-04-18T19:35:00.407Z,35.45
2023-04-18T19:37:28.648Z,34.73
2023-04-18T19:39:56.764Z,35.92
2023-04-18T19:42:24.936Z,34.82
2023-04-18T19:44:54.435Z,34.62
2023-04-18T19:47:22.459Z,36.24
2023-04-18T19:49:50.925Z,36.26
2023-04-18T19:52:18.924Z,36.08
2023-04-18T19:54:46.829Z,36.03
2023-04-18T19:57:14.919Z,35.66
2023-04-18T19:59:43.265Z,34.55
2023-04-18T20:02:12.675Z,35.69
2023-04-18T20:04:41.796Z,36.64
2023-04-18T20:07:09.897Z,36.63
2023-04-18T20:09:37.775Z,35.85
2023-04-18T20:12:05.740Z,35.08
2023-04-18T20:14:33.579Z,33.04
2023-04-18T20:17:01.448Z,34.10
2023-04-18T20:19:30.783Z,33.42
2023-04-18T20:21:58.644Z,34.20
2023-04-18T20:24:28.392Z,34.21
2023-04-18T20:27:13.369Z,34.68
2023-04-18T20:29:42.333Z,34.14
2023-04-18T20:32:13.157Z,35.66
2023-04-18T20:34:43.486Z,34.89
2023-04-18T20:37:15.589Z,35.06
2023-04-18T20:39:48.018Z,34.52
2023-04-18T20:42:19.576Z,34.86
2023-04-18T20:44:48.509Z,34.51
2023-04-18T20:47:16.649Z,34.49
2023-04-18T20:49:47.088Z,34.39
2023-04-18T20:52:18.063Z,34.06
2023-04-18T20:54:46.203Z,33.88
2023-04-18T20:57:14.544Z,35.07
2023-04-18T20:59:42.684Z,34.02
2023-04-18T21:02:10.851Z,34.03
2023-04-18T21:04:38.956Z,33.49
2023-04-18T21:07:09.360Z,32.88
2023-04-18T21:09:37.692Z,34.30
2023-04-18T21:12:09.292Z,35.05
2023-04-18T21:14:37.715Z,34.68
2023-04-18T21:17:08.131Z,35.01
2023-04-18T21:19:36.330Z,32.57
2023-04-18T21:22:04.874Z,33.75
2023-04-18T21:24:35.041Z,35.29
2023-04-18T21:27:08.205Z,34.80
2023-04-18T21:29:40.174Z,34.53
2023-04-18T21:32:08.213Z,35.41
2023-04-18T21:34:36.526Z,34.98
2023-04-18T21:37:04.623Z,35.11
2023-04-18T21:39:34.699Z,35.30
2023-04-18T21:42:03.280Z,34.31
2023-04-18T21:44:31.904Z,34.51
2023-04-18T21:47:00.914Z,35.20
2023-04-18T21:49:29.160Z,34.34
2023-04-18T21:51:57.201Z,35.27
2023-04-18T21:54:25.097Z,35.14
2023-04-18T21:56:54.319Z,34.39
2023-04-18T21:59:22.375Z,33.43
2023-04-18T22:01:50.642Z,34.87
2023-04-18T22:04:21.128Z,33.94
2023-04-18T22:06:49.139Z,33.87
2023-04-18T22:09:19.134Z,33.12
2023-04-18T22:11:47.197Z,32.13
2023-04-18T22:14:16.642Z,33.26
2023-04-18T22:16:45.273Z,33.34
2023-04-18T22:19:14.082Z,34.31
2023-04-18T22:21:42.875Z,32.47
2023-04-18T22:24:10.762Z,33.87
2023-04-18T22:26:38.689Z,32.00
2023-04-18T22:29:06.574Z,32.36
2023-04-18T22:31:36.100Z,33.65
2023-04-18T22:34:04.788Z,33.51
2023-04-18T22:36:33.015Z,34.13
2023-04-18T22:39:00.912Z,32.80
2023-04-18T22:41:28.900Z,33.97
2023-04-18T22:43:56.729Z,33.94
2023-04-18T22:46:24.648Z,33.19
2023-04-18T22:48:54.187Z,33.13
2023-04-18T22:51:23.442Z,33.83
2023-04-18T22:53:51.514Z,32.09
2023-04-18T22:56:19.421Z,33.30
2023-04-18T22:58:47.473Z,32.98
2023-04-18T23:01:15.612Z,32.99
2023-04-18T23:03:43.809Z,33.48
2023-04-18T23:06:13.529Z,31.96
2023-04-18T23:08:41.449Z,32.22
2023-04-18T23:11:10.676Z,31.10
2023-04-18T23:13:38.582Z,30.68
2023-04-18T23:16:07.415Z,30.02
2023-04-18T23:18:35.306Z,30.08
2023-04-18T23:21:03.048Z,29.56
2023-04-18T23:23:32.198Z,28.00
2023-04-18T23:26:00.216Z,28.06
2023-04-18T23:28:28.155Z,28.43
2023-04-18T23:30:56.098Z,27.87
2023-04-18T23:33:24.069Z,28.99
2023-04-18T23:35:52.045Z,29.07
2023-04-18T23:38:20.295Z,28.18
2023-04-18T23:40:49.504Z,27.98
2023-04-18T23:43:17.589Z,27.57
2023-04-18T23:45:45.500Z,26.68
2023-04-18T23:48:13.704Z,26.98
2023-04-18T23:50:46.167Z,26.30
2023-04-18T23:53:14.079Z,25.55
2023-04-18T23:55:41.876Z,25.69
2023-04-18T23:58:11.311Z,26.20
